Time,TemperatureF,DewpointF,PressureIn,WindDirection,WindDirectionDegrees,WindSpeedMPH,WindSpeedGustMPH,Humidity,HourlyPrecipIn,Conditions,Clouds,dailyrainin,SoftwareType,DateUTC
2013-10-20 00:02:00,-999.0,-99.9,29.77,WNW,295,0.0,0.0,-999,-99.99,,,-99.99,,2013-10-20 04:02:00,
2013-10-20 00:14:00,54.0,52.0,29.77,WNW,295,0.0,0.0,93,0.00,,,0.03,,2013-10-20 04:14:00,
2013-10-20 00:24:00,54.0,52.0,29.77,WNW,295,0.0,0.0,93,0.00,,,0.03,,2013-10-20 04:24:00,
2013-10-20 00:44:00,54.0,52.0,29.76,WNW,295,0.0,0.0,93,0.00,,,0.03,,2013-10-20 04:44:00,
2013-10-20 00:54:00,53.0,51.0,29.77,WNW,295,0.0,0.0,94,0.00,,,0.03,,2013-10-20 04:54:00,
2013-10-20 01:13:00,53.0,51.0,29.77,WNW,295,0.0,0.0,93,0.00,,,0.03,,2013-10-20 05:13:00,
2013-10-20 01:23:00,53.0,51.0,29.77,WNW,295,0.0,0.0,92,0.00,,,0.03,,2013-10-20 05:23:00,
2013-10-20 01:43:00,53.0,51.0,29.77,WNW,295,0.0,0.0,92,0.00,,,0.03,,2013-10-20 05:43:00,
2013-10-20 01:52:00,53.0,50.0,29.77,WNW,295,0.0,0.0,91,0.00,,,0.03,,2013-10-20 05:52:00,
2013-10-20 02:13:00,53.0,50.0,29.77,NW,321,0.0,0.0,90,0.00,,,0.03,,2013-10-20 06:13:00,
2013-10-20 02:22:00,53.0,50.0,29.78,NW,321,0.0,0.0,88,0.00,,,0.03,,2013-10-20 06:22:00,
2013-10-20 02:52:00,52.0,48.0,29.78,NW,321,0.0,0.0,85,0.00,,,0.03,,2013-10-20 06:52:00,
2013-10-20 03:12:00,52.0,48.0,29.78,NW,321,0.0,0.0,85,0.00,,,0.03,,2013-10-20 07:12:00,
2013-10-20 03:22:00,52.0,47.0,29.79,NW,321,0.0,0.0,84,0.00,,,0.03,,2013-10-20 07:22:00,
2013-10-20 03:42:00,51.0,46.0,29.79,NW,321,0.0,0.0,83,0.00,,,0.03,,2013-10-20 07:42:00,
2013-10-20 03:52:00,51.0,46.0,29.79,NW,321,0.0,0.0,82,0.00,,,0.03,,2013-10-20 07:52:00,
2013-10-20 04:11:00,51.0,45.0,29.79,NW,321,0.0,0.0,81,0.00,,,0.03,,2013-10-20 08:11:00,
2013-10-20 04:22:00,50.0,44.0,29.79,NW,308,0.0,0.0,79,0.00,,,0.03,,2013-10-20 08:22:00,
2013-10-20 04:42:00,50.0,44.0,29.80,NW,308,0.0,0.0,79,0.00,,,0.03,,2013-10-20 08:42:00,
2013-10-20 04:52:00,50.0,43.0,29.81,NW,308,0.0,0.0,78,0.00,,,0.03,,2013-10-20 08:52:00,
2013-10-20 05:11:00,49.0,42.0,29.81,NW,308,0.0,0.0,78,0.00,,,0.03,,2013-10-20 09:11:00,
2013-10-20 05:21:00,49.0,43.0,29.83,NW,308,0.0,0.0,79,0.00,,,0.03,,2013-10-20 09:21:00,
2013-10-20 05:43:00,49.0,43.0,29.83,NW,308,0.0,0.0,79,0.00,,,0.03,,2013-10-20 09:43:00,
2013-10-20 05:53:00,48.0,42.0,29.84,NW,308,0.0,0.0,79,0.00,,,0.03,,2013-10-20 09:53:00,
2013-10-20 06:13:00,48.0,42.0,29.85,NW,308,0.0,0.0,79,0.00,,,0.03,,2013-10-20 10:13:00,
2013-10-20 06:23:00,48.0,42.0,29.85,NW,308,0.0,0.0,81,0.00,,,0.03,,2013-10-20 10:23:00,
2013-10-20 06:53:00,46.0,42.0,29.87,NW,308,0.0,0.0,85,0.00,,,0.03,,2013-10-20 10:53:00,
2013-10-20 07:12:00,46.0,42.0,29.87,NW,308,0.0,0.0,85,0.00,,,0.03,,2013-10-20 11:12:00,
2013-10-20 07:22:00,46.0,42.0,29.88,NW,308,0.0,0.0,85,0.00,,,0.03,,2013-10-20 11:22:00,
2013-10-20 07:43:00,46.0,42.0,29.88,NW,308,0.0,0.0,85,0.00,,,0.03,,2013-10-20 11:43:00,
2013-10-20 07:52:00,46.0,41.0,29.89,NW,308,0.0,0.0,84,0.00,,,0.03,,2013-10-20 11:52:00,
2013-10-20 08:11:00,47.0,42.0,29.89,NW,308,0.0,0.0,82,0.00,,,0.03,,2013-10-20 12:11:00,
2013-10-20 08:22:00,48.0,42.0,29.90,NW,308,0.0,0.0,79,0.00,,,0.03,,2013-10-20 12:22:00,
2013-10-20 08:42:00,48.0,41.0,29.91,West,271,0.0,0.0,77,0.00,,,0.03,,2013-10-20 12:42:00,
2013-10-20 08:52:00,48.0,40.0,29.92,West,271,0.0,0.0,75,0.00,,,0.03,,2013-10-20 12:52:00,
2013-10-20 09:11:00,49.0,41.0,29.93,West,271,0.0,0.0,74,0.00,,,0.03,,2013-10-20 13:11:00,
2013-10-20 09:22:00,49.0,40.0,29.93,West,262,0.0,0.0,71,0.00,,,0.03,,2013-10-20 13:22:00,
2013-10-20 09:42:00,49.0,39.0,29.93,WNW,294,0.0,0.0,69,0.00,,,0.03,,2013-10-20 13:42:00,
2013-10-20 09:52:00,50.0,39.0,29.94,WNW,294,0.0,0.0,67,0.00,,,0.03,,2013-10-20 13:52:00,
2013-10-20 10:12:00,51.0,40.0,29.94,WNW,294,0.0,0.0,66,0.00,,,0.03,,2013-10-20 14:12:00,
2013-10-20 10:22:00,52.0,40.0,29.94,WNW,294,0.0,2.0,63,0.00,,,0.03,,2013-10-20 14:22:00,
2013-10-20 10:42:00,52.0,39.0,29.95,WNW,294,0.0,0.0,62,0.00,,,0.03,,2013-10-20 14:42:00,
2013-10-20 10:52:00,53.0,39.0,29.95,WNW,294,0.0,2.0,58,0.00,,,0.03,,2013-10-20 14:52:00,
2013-10-20 11:11:00,53.0,38.0,29.95,WNW,294,0.0,0.0,57,0.00,,,0.03,,2013-10-20 15:11:00,
2013-10-20 11:22:00,55.0,40.0,29.95,WNW,294,0.0,0.0,57,0.00,,,0.03,,2013-10-20 15:22:00,
2013-10-20 11:44:00,56.0,40.0,29.96,WNW,294,0.0,0.0,54,0.00,,,0.03,,2013-10-20 15:44:00,
2013-10-20 11:54:00,57.0,40.0,29.96,WNW,294,0.0,0.0,52,0.00,,,0.03,,2013-10-20 15:54:00,
2013-10-20 12:14:00,57.0,39.0,29.96,WNW,294,0.0,0.0,51,0.00,,,0.03,,2013-10-20 16:14:00,
2013-10-20 12:24:00,58.0,39.0,29.96,WNW,294,0.0,0.0,49,0.00,,,0.03,,2013-10-20 16:24:00,
2013-10-20 12:43:00,59.0,39.0,29.96,WNW,294,0.0,0.0,48,0.00,,,0.03,,2013-10-20 16:43:00,
2013-10-20 12:54:00,60.0,40.0,29.96,WNW,294,0.0,0.0,47,0.00,,,0.03,,2013-10-20 16:54:00,
2013-10-20 13:12:00,61.0,40.0,29.96,WNW,294,0.0,0.0,45,0.00,,,0.03,,2013-10-20 17:12:00,
2013-10-20 13:23:00,61.0,40.0,29.95,WNW,294,0.0,0.0,45,0.00,,,0.03,,2013-10-20 17:23:00,
2013-10-20 13:42:00,61.0,38.0,29.95,WNW,294,0.0,0.0,42,0.00,,,0.03,,2013-10-20 17:42:00,
2013-10-20 13:52:00,62.0,38.0,29.94,WNW,294,0.0,0.0,41,0.00,,,0.03,,2013-10-20 17:52:00,
2013-10-20 14:12:00,62.0,37.0,29.94,WNW,294,0.0,5.0,40,0.00,,,0.03,,2013-10-20 18:12:00,
2013-10-20 14:22:00,61.0,37.0,29.94,WNW,294,0.0,0.0,41,0.00,,,0.03,,2013-10-20 18:22:00,
2013-10-20 14:42:00,62.0,35.0,29.94,WNW,294,0.0,0.0,37,0.00,,,0.03,,2013-10-20 18:42:00,
2013-10-20 14:52:00,63.0,36.0,29.95,WNW,294,0.0,0.0,37,0.00,,,0.03,,2013-10-20 18:52:00,
2013-10-20 15:12:00,62.0,37.0,29.94,WNW,294,0.0,0.0,39,0.00,,,0.03,,2013-10-20 19:12:00,
2013-10-20 15:22:00,63.0,36.0,29.94,WNW,294,0.0,0.0,37,0.00,,,0.03,,2013-10-20 19:22:00,
2013-10-20 15:42:00,64.0,36.0,29.94,WNW,294,0.0,0.0,35,0.00,,,0.03,,2013-10-20 19:42:00,
2013-10-20 15:52:00,63.0,35.0,29.95,WNW,294,0.0,0.0,35,0.00,,,0.03,,2013-10-20 19:52:00,
2013-10-20 16:12:00,64.0,36.0,29.95,WNW,294,0.0,0.0,35,0.00,,,0.03,,2013-10-20 20:12:00,
2013-10-20 16:22:00,63.0,36.0,29.95,WNW,294,0.0,0.0,36,0.00,,,0.03,,2013-10-20 20:22:00,
2013-10-20 16:43:00,64.0,36.0,29.96,WNW,294,0.0,0.0,35,0.00,,,0.03,,2013-10-20 20:43:00,
2013-10-20 16:52:00,64.0,38.0,29.96,WNW,294,0.0,0.0,38,0.00,,,0.03,,2013-10-20 20:52:00,
2013-10-20 17:11:00,63.0,36.0,29.96,WNW,294,0.0,0.0,37,0.00,,,0.03,,2013-10-20 21:11:00,
2013-10-20 17:22:00,62.0,36.0,29.96,WNW,294,0.0,0.0,38,0.00,,,0.03,,2013-10-20 21:22:00,
2013-10-20 17:44:00,60.0,37.0,29.97,WNW,294,0.0,0.0,42,0.00,,,0.03,,2013-10-20 21:44:00,
2013-10-20 17:54:00,59.0,36.0,29.97,WNW,294,0.0,0.0,42,0.00,,,0.03,,2013-10-20 21:54:00,
2013-10-20 18:13:00,58.0,36.0,29.98,WNW,294,0.0,0.0,44,0.00,,,0.03,,2013-10-20 22:13:00,
2013-10-20 18:23:00,58.0,37.0,29.98,WNW,294,0.0,0.0,45,0.00,,,0.03,,2013-10-20 22:23:00,
2013-10-20 18:43:00,57.0,37.0,29.99,WNW,294,0.0,0.0,47,0.00,,,0.03,,2013-10-20 22:43:00,
2013-10-20 18:53:00,56.0,37.0,30.00,WNW,294,0.0,0.0,49,0.00,,,0.03,,2013-10-20 22:53:00,
2013-10-20 19:13:00,54.0,38.0,30.00,WNW,294,0.0,0.0,55,0.00,,,0.03,,2013-10-20 23:13:00,
2013-10-20 19:22:00,53.0,38.0,30.01,WNW,294,0.0,0.0,57,0.00,,,0.03,,2013-10-20 23:22:00,
2013-10-20 19:43:00,51.0,39.0,30.01,WNW,294,0.0,0.0,63,0.00,,,0.03,,2013-10-20 23:43:00,
2013-10-20 19:52:00,50.0,38.0,30.01,WNW,294,0.0,0.0,64,0.00,,,0.03,,2013-10-20 23:52:00,
2013-10-20 20:12:00,49.0,39.0,30.02,WNW,294,0.0,0.0,67,0.00,,,0.03,,2013-10-21 00:12:00,
2013-10-20 20:22:00,49.0,39.0,30.02,WNW,294,0.0,0.0,68,0.00,,,0.03,,2013-10-21 00:22:00,
2013-10-20 20:43:00,48.0,39.0,30.03,WNW,294,0.0,0.0,70,0.00,,,0.03,,2013-10-21 00:43:00,
2013-10-20 20:52:00,48.0,39.0,30.03,WNW,294,0.0,0.0,71,0.00,,,0.03,,2013-10-21 00:52:00,
2013-10-20 21:12:00,47.0,39.0,30.04,WNW,294,0.0,0.0,73,0.00,,,0.03,,2013-10-21 01:12:00,
2013-10-20 21:22:00,47.0,39.0,30.04,WNW,294,0.0,0.0,74,0.00,,,0.03,,2013-10-21 01:22:00,
2013-10-20 21:42:00,46.0,39.0,30.05,WNW,294,0.0,0.0,75,0.00,,,0.03,,2013-10-21 01:42:00,
2013-10-20 21:52:00,46.0,39.0,30.05,WNW,294,0.0,0.0,76,0.00,,,0.03,,2013-10-21 01:52:00,
2013-10-20 22:12:00,46.0,39.0,30.06,WNW,294,0.0,0.0,77,0.00,,,0.03,,2013-10-21 02:12:00,
2013-10-20 22:22:00,45.0,39.0,30.06,WNW,294,0.0,0.0,78,0.00,,,0.02,,2013-10-21 02:22:00,
2013-10-20 22:42:00,45.0,39.0,30.06,WNW,294,0.0,0.0,79,0.00,,,0.00,,2013-10-21 02:42:00,
2013-10-20 22:52:00,45.0,39.0,30.06,WNW,294,0.0,0.0,80,0.00,,,0.00,,2013-10-21 02:52:00,
2013-10-20 23:12:00,44.0,39.0,30.06,WNW,294,0.0,0.0,81,0.00,,,0.00,,2013-10-21 03:12:00,
2013-10-20 23:22:00,44.0,39.0,30.06,WNW,294,0.0,0.0,81,0.00,,,0.00,,2013-10-21 03:22:00,
2013-10-20 23:45:00,44.0,39.0,30.06,WNW,294,0.0,0.0,81,0.00,,,0.00,,2013-10-21 03:45:00,
2013-10-20 23:54:00,44.0,39.0,30.07,WNW,294,0.0,0.0,81,0.00,,,0.00,,2013-10-21 03:54:00,